createdAt,value
2019-04-01T00:02:01.419Z,37.00
2019-04-01T00:04:29.842Z,37.00
2019-04-01T00:07:00.884Z,35.87
2019-04-01T00:09:29.317Z,36.73
2019-04-01T00:12:00.642Z,33.77
2019-04-01T00:14:29.083Z,39.50
2019-04-01T00:17:00.089Z,37.53
2019-04-01T00:19:28.518Z,35.63
2019-04-01T00:21:57.053Z,37.13
2019-04-01T00:24:26.049Z,35.10
2019-04-01T00:27:04.898Z,31.50
2019-04-01T00:29:34.969Z,30.17
2019-04-01T00:32:11.161Z,33.70
2019-04-01T00:34:41.127Z,32.23
2019-04-01T00:37:23.922Z,30.97
2019-04-01T00:39:52.357Z,28.33
2019-04-01T00:42:31.208Z,25.67
2019-04-01T00:44:59.638Z,32.93
2019-04-01T00:47:30.014Z,30.90
2019-04-01T00:50:12.347Z,30.30
2019-04-01T00:52:46.555Z,27.40
2019-04-01T00:55:26.318Z,31.07
2019-04-01T00:57:54.738Z,26.80
2019-04-01T01:00:28.588Z,28.80
2019-04-01T01:03:08.508Z,27.40
2019-04-01T01:05:39.964Z,31.57
2019-04-01T01:08:08.416Z,25.27
2019-04-01T01:10:42.779Z,25.20
2019-04-01T01:13:11.194Z,28.50
2019-04-01T01:15:52.094Z,30.67
2019-04-01T01:18:23.187Z,26.43
2019-04-01T01:20:51.718Z,24.50
2019-04-01T01:23:25.714Z,25.73
2019-04-01T01:25:54.201Z,24.97
2019-04-01T01:28:22.615Z,24.20
2019-04-01T01:30:53.841Z,23.73
2019-04-01T01:33:29.533Z,24.50
2019-04-01T01:35:57.962Z,24.17
2019-04-01T01:38:31.943Z,23.13
2019-04-01T01:41:13.590Z,21.57
2019-04-01T01:43:43.652Z,21.33
2019-04-01T01:46:17.695Z,23.47
2019-04-01T01:48:46.111Z,22.60
2019-04-01T01:51:14.531Z,21.97
2019-04-01T01:53:49.260Z,19.43
2019-04-01T01:56:17.699Z,18.57
2019-04-01T01:58:49.395Z,24.17
2019-04-01T02:01:17.822Z,23.40
2019-04-01T02:03:51.677Z,26.47
2019-04-01T02:06:20.455Z,19.77
2019-04-01T02:08:54.541Z,23.93
2019-04-01T02:11:22.969Z,20.30
2019-04-01T02:13:54.706Z,23.27
2019-04-01T02:16:27.444Z,23.87
2019-04-01T02:19:01.645Z,21.20
2019-04-01T02:21:30.849Z,20.10
2019-04-01T02:24:01.898Z,22.90
2019-04-01T02:26:31.555Z,21.13
2019-04-01T02:29:04.159Z,20.67
2019-04-01T02:31:33.583Z,22.77
2019-04-01T02:34:10.515Z,18.90
2019-04-01T02:36:44.885Z,19.07
2019-04-01T02:39:16.023Z,19.47
2019-04-01T02:41:48.357Z,19.33
2019-04-01T02:44:19.494Z,20.33
2019-04-01T02:46:51.435Z,18.77
2019-04-01T02:49:22.842Z,18.13
2019-04-01T02:51:51.265Z,19.73
2019-04-01T02:54:32.786Z,19.37
2019-04-01T02:57:01.622Z,21.73
2019-04-01T02:59:30.038Z,22.53
2019-04-01T03:02:05.859Z,18.63
2019-04-01T03:04:37.139Z,19.23
2019-04-01T03:07:05.681Z,18.20
2019-04-01T03:09:34.164Z,17.60
2019-04-01T03:12:08.640Z,17.30
2019-04-01T03:14:50.223Z,18.50
2019-04-01T03:17:21.117Z,16.00
2019-04-01T03:19:52.206Z,15.00
2019-04-01T03:22:20.635Z,16.73
2019-04-01T03:24:49.046Z,16.07
2019-04-01T03:27:29.481Z,17.90
2019-04-01T03:30:10.097Z,16.63
2019-04-01T03:32:45.345Z,16.40
2019-04-01T03:35:21.090Z,18.10
2019-04-01T03:37:49.522Z,18.47
2019-04-01T03:40:24.302Z,17.07
2019-04-01T03:42:53.147Z,17.53
2019-04-01T03:45:25.942Z,14.13
2019-04-01T03:47:53.345Z,16.73
2019-04-01T03:50:27.769Z,17.27
2019-04-01T03:52:59.195Z,15.60
2019-04-01T03:55:32.237Z,14.77
2019-04-01T03:58:09.579Z,17.73
2019-04-01T04:00:41.260Z,15.80
2019-04-01T04:03:17.231Z,14.00
2019-04-01T04:05:45.955Z,16.27
2019-04-01T04:08:17.121Z,12.97
2019-04-01T04:10:47.186Z,13.70
2019-04-01T04:13:17.255Z,19.37
2019-04-01T04:15:46.226Z,16.77
2019-04-01T04:18:17.578Z,13.23
2019-04-01T04:20:55.156Z,15.20
2019-04-01T04:23:26.417Z,15.67
2019-04-01T04:25:54.872Z,15.03
2019-04-01T04:28:23.285Z,13.77
2019-04-01T04:30:57.304Z,14.53
2019-04-01T04:33:28.427Z,11.07
2019-04-01T04:36:05.200Z,14.27
2019-04-01T04:38:51.474Z,19.63
2019-04-01T04:41:25.697Z,12.87
2019-04-01T04:43:58.954Z,12.57
2019-04-01T04:46:30.609Z,15.40
2019-04-01T04:49:04.990Z,15.37
2019-04-01T04:51:33.410Z,12.57
2019-04-01T04:54:13.018Z,12.97
2019-04-01T04:56:44.187Z,14.07
2019-04-01T04:59:15.303Z,14.47
2019-04-01T05:01:49.043Z,13.67
2019-04-01T05:04:21.781Z,22.70
2019-04-01T05:06:50.211Z,13.47
2019-04-01T05:09:21.541Z,13.30
2019-04-01T05:11:52.710Z,15.77
2019-04-01T05:14:30.114Z,17.27
2019-04-01T05:17:01.847Z,12.27
2019-04-01T05:19:31.066Z,15.97
2019-04-01T05:22:00.121Z,14.17
2019-04-01T05:24:28.794Z,13.33
2019-04-01T05:27:00.973Z,14.53
2019-04-01T05:29:30.869Z,11.87
2019-04-01T05:32:02.051Z,11.63
2019-04-01T05:34:35.983Z,12.70
2019-04-01T05:37:04.686Z,12.30
2019-04-01T05:39:38.659Z,9.80
2019-04-01T05:42:07.144Z,11.07
2019-04-01T05:44:39.095Z,12.03
2019-04-01T05:47:12.378Z,10.10
2019-04-01T05:49:44.022Z,8.83
2019-04-01T05:52:16.805Z,8.00
2019-04-01T05:54:49.218Z,8.17
2019-04-01T05:57:22.003Z,9.10
2019-04-01T05:59:56.677Z,12.40
2019-04-01T06:02:25.177Z,13.63
2019-04-01T06:04:59.517Z,9.50
2019-04-01T06:07:27.938Z,9.87
2019-04-01T06:10:05.242Z,7.60
2019-04-01T06:12:36.649Z,9.33
2019-04-01T06:15:17.088Z,10.43
2019-04-01T06:17:50.074Z,8.37
2019-04-01T06:20:20.143Z,11.50
2019-04-01T06:22:50.879Z,9.23
2019-04-01T06:25:23.595Z,8.93
2019-04-01T06:27:54.091Z,8.37
2019-04-01T06:30:27.865Z,8.97
2019-04-01T06:32:56.285Z,8.77
2019-04-01T06:35:27.445Z,8.90
2019-04-01T06:37:57.831Z,8.40
2019-04-01T06:40:31.888Z,10.20
2019-04-01T06:43:00.412Z,8.87
2019-04-01T06:45:33.617Z,10.60
2019-04-01T06:48:02.233Z,7.83
2019-04-01T06:50:33.409Z,6.53
2019-04-01T06:53:01.986Z,9.43
2019-04-01T06:55:30.413Z,7.60
2019-04-01T06:57:59.174Z,7.93
2019-04-01T07:00:27.594Z,7.77
2019-04-01T07:02:56.010Z,6.57
2019-04-01T07:05:33.421Z,8.10
2019-04-01T07:08:05.118Z,6.90
2019-04-01T07:10:41.706Z,6.67
2019-04-01T07:13:18.878Z,8.00
2019-04-01T07:15:47.294Z,7.67
2019-04-01T07:18:17.362Z,9.07
2019-04-01T07:20:51.698Z,6.27
2019-04-01T07:23:20.119Z,11.03
2019-04-01T07:25:50.638Z,6.87
2019-04-01T07:28:20.705Z,8.70
2019-04-01T07:30:53.567Z,8.57
2019-04-01T07:33:22.026Z,8.83
2019-04-01T07:35:55.817Z,6.40
2019-04-01T07:38:26.055Z,6.07
2019-04-01T07:40:54.533Z,8.30
2019-04-01T07:43:27.117Z,8.47
2019-04-01T07:46:07.885Z,7.30
2019-04-01T07:48:37.387Z,7.80
2019-04-01T07:51:11.793Z,12.53
2019-04-01T07:53:40.259Z,8.77
2019-04-01T07:56:11.750Z,8.30
2019-04-01T07:58:40.750Z,8.30
2019-04-01T08:01:12.081Z,7.13
2019-04-01T08:03:42.178Z,9.87
2019-04-01T08:06:11.114Z,9.20
2019-04-01T08:08:48.406Z,9.87
2019-04-01T08:11:24.090Z,11.87
2019-04-01T08:13:54.169Z,12.77
2019-04-01T08:16:25.974Z,10.53
2019-04-01T08:18:54.572Z,11.00
2019-04-01T08:21:27.477Z,10.63
2019-04-01T08:24:01.797Z,13.00
2019-04-01T08:26:30.218Z,10.97
2019-04-01T08:28:58.642Z,12.20
2019-04-01T08:31:30.294Z,11.87
2019-04-01T08:34:07.270Z,14.17
2019-04-01T08:36:38.664Z,11.87
2019-04-01T08:39:12.854Z,15.07
2019-04-01T08:41:43.018Z,11.73
2019-04-01T08:44:14.297Z,13.17
2019-04-01T08:46:47.113Z,13.87
2019-04-01T08:49:15.640Z,13.60
2019-04-01T08:51:44.138Z,13.00
2019-04-01T08:54:17.150Z,12.17
2019-04-01T08:56:47.226Z,13.13
2019-04-01T08:59:16.097Z,15.70
2019-04-01T09:01:56.590Z,14.27
2019-04-01T09:04:31.183Z,14.83
2019-04-01T09:07:01.246Z,12.90
2019-04-01T09:09:36.389Z,12.23
2019-04-01T09:12:04.819Z,11.90
2019-04-01T09:14:34.491Z,15.90
2019-04-01T09:17:06.265Z,17.13
2019-04-01T09:19:36.339Z,13.97
2019-04-01T09:22:06.444Z,17.27
2019-04-01T09:24:42.647Z,14.20
2019-04-01T09:27:11.066Z,15.30
2019-04-01T09:29:39.509Z,15.40
2019-04-01T09:32:28.970Z,16.27
2019-04-01T09:35:03.509Z,18.20
2019-04-01T09:37:34.439Z,15.93
2019-04-01T09:40:07.018Z,14.33
2019-04-01T09:42:38.061Z,16.17
2019-04-01T09:45:08.042Z,13.27
2019-04-01T09:47:39.531Z,13.63
2019-04-01T09:50:15.937Z,16.03
2019-04-01T09:52:50.323Z,13.97
2019-04-01T09:55:28.110Z,13.53
2019-04-01T09:58:02.726Z,14.90
2019-04-01T10:00:31.208Z,14.97
2019-04-01T10:03:05.212Z,14.70
2019-04-01T10:05:37.956Z,19.87
2019-04-01T10:08:12.155Z,13.83
2019-04-01T10:10:40.581Z,18.03
2019-04-01T10:13:13.342Z,16.30
2019-04-01T10:15:50.639Z,18.13
2019-04-01T10:18:19.057Z,20.10
2019-04-01T10:20:47.496Z,14.63
2019-04-01T10:23:17.553Z,15.77
2019-04-01T10:25:45.993Z,16.10
2019-04-01T10:28:16.921Z,16.30
2019-04-01T10:30:52.862Z,15.37
2019-04-01T10:33:36.189Z,17.07
2019-04-01T10:36:04.690Z,16.93
2019-04-01T10:38:35.760Z,18.07
2019-04-01T10:41:06.101Z,17.40
2019-04-01T10:43:34.517Z,16.97
2019-04-01T10:46:02.986Z,17.80
2019-04-01T10:48:33.081Z,17.57
2019-04-01T10:51:07.416Z,16.37
2019-04-01T10:53:35.908Z,19.33
2019-04-01T10:56:09.195Z,18.03
2019-04-01T10:58:40.738Z,20.13
2019-04-01T11:01:11.879Z,16.47
2019-04-01T11:03:43.188Z,15.53
2019-04-01T11:06:11.669Z,15.03
2019-04-01T11:08:48.873Z,17.23
2019-04-01T11:11:17.410Z,16.23
2019-04-01T11:13:51.827Z,14.83
2019-04-01T11:16:21.750Z,16.83
2019-04-01T11:18:50.187Z,17.97
2019-04-01T11:21:18.617Z,22.27
2019-04-01T11:23:47.044Z,18.23
2019-04-01T11:26:24.314Z,17.30
2019-04-01T11:28:53.550Z,17.10
2019-04-01T11:31:23.615Z,20.00
2019-04-01T11:33:55.574Z,19.37
2019-04-01T11:36:28.500Z,22.57
2019-04-01T11:39:05.056Z,18.73
2019-04-01T11:41:36.797Z,19.90
2019-04-01T11:44:08.376Z,18.57
2019-04-01T11:46:41.153Z,20.87
2019-04-01T11:49:15.198Z,19.73
2019-04-01T11:51:43.701Z,23.57
2019-04-01T11:54:17.886Z,20.60
2019-04-01T11:56:54.686Z,20.57
2019-04-01T11:59:23.109Z,19.77
2019-04-01T12:01:54.484Z,21.10
2019-04-01T12:04:25.870Z,21.57
2019-04-01T12:06:54.311Z,20.77
2019-04-01T12:09:22.729Z,17.03
2019-04-01T12:11:53.846Z,17.00
2019-04-01T12:14:28.097Z,17.57
2019-04-01T12:17:02.517Z,19.40
2019-04-01T12:19:30.938Z,17.47
2019-04-01T12:22:06.773Z,17.57
2019-04-01T12:24:43.410Z,16.47
2019-04-01T12:27:15.541Z,16.13
2019-04-01T12:29:48.395Z,15.47
2019-04-01T12:32:19.783Z,15.87
2019-04-01T12:35:07.461Z,16.17
2019-04-01T12:37:37.545Z,15.80
2019-04-01T12:40:07.472Z,15.83
2019-04-01T12:42:38.738Z,16.37
2019-04-01T12:45:08.054Z,16.30
2019-04-01T12:47:46.417Z,15.23
2019-04-01T12:50:12.733Z,18.10
2019-04-01T12:52:41.174Z,16.10
2019-04-01T12:55:12.634Z,16.17
2019-04-01T12:57:42.781Z,17.20
2019-04-01T13:00:15.884Z,16.43
2019-04-01T13:02:47.006Z,14.97
2019-04-01T13:05:18.415Z,17.00
2019-04-01T13:08:06.471Z,17.20
2019-04-01T13:10:39.493Z,15.80
2019-04-01T13:13:07.930Z,17.87
2019-04-01T13:15:41.150Z,15.70
2019-04-01T13:18:13.914Z,18.13
2019-04-01T13:21:11.207Z,17.23
2019-04-01T13:23:26.512Z,16.83
2019-04-01T13:25:55.930Z,17.77
2019-04-01T13:28:25.913Z,17.73
2019-04-01T13:30:59.175Z,18.07
2019-04-01T13:33:32.946Z,15.60
2019-04-01T13:36:01.635Z,18.37
2019-04-01T13:38:31.693Z,15.97
2019-04-01T13:41:06.185Z,16.10
2019-04-01T13:43:41.100Z,17.70
2019-04-01T13:46:12.554Z,16.20
2019-04-01T13:48:56.596Z,15.10
2019-04-01T13:51:14.411Z,17.43
2019-04-01T13:53:48.119Z,18.57
2019-04-01T13:56:18.868Z,22.30
2019-04-01T13:58:54.506Z,15.23
2019-04-01T14:01:23.810Z,16.70
2019-04-01T14:03:55.571Z,17.93
2019-04-01T14:06:24.006Z,17.83
2019-04-01T14:09:00.439Z,16.97
2019-04-01T14:11:28.218Z,19.87
2019-04-01T14:13:56.655Z,19.13
2019-04-01T14:16:34.149Z,18.30
2019-04-01T14:19:04.356Z,18.77
2019-04-01T14:21:35.450Z,14.53
2019-04-01T14:24:06.801Z,17.83
2019-04-01T14:26:36.888Z,21.57
2019-04-01T14:29:06.864Z,17.67
2019-04-01T14:31:39.710Z,17.27
2019-04-01T14:34:13.381Z,18.07
2019-04-01T14:36:39.910Z,17.97
2019-04-01T14:39:14.566Z,16.37
2019-04-01T14:41:45.716Z,16.97
2019-04-01T14:44:19.821Z,18.03
2019-04-01T14:46:51.289Z,18.40
2019-04-01T14:49:22.807Z,16.73
2019-04-01T14:51:55.842Z,15.50
2019-04-01T14:54:27.302Z,17.03
2019-04-01T14:56:59.434Z,19.00
2019-04-01T14:59:30.643Z,17.73
2019-04-01T15:01:59.338Z,18.30
2019-04-01T15:04:29.210Z,15.80
2019-04-01T15:07:08.491Z,16.87
2019-04-01T15:09:36.937Z,17.60
2019-04-01T15:12:09.467Z,17.83
2019-04-01T15:14:38.678Z,18.73
2019-04-01T15:17:08.402Z,14.87
2019-04-01T15:19:39.782Z,18.00
2019-04-01T15:22:11.140Z,16.70
2019-04-01T15:24:41.503Z,17.67
2019-04-01T15:27:11.577Z,17.40
2019-04-01T15:29:45.096Z,17.70
2019-04-01T15:32:19.135Z,19.20
2019-04-01T15:34:53.428Z,15.17
2019-04-01T15:37:23.267Z,18.93
2019-04-01T15:39:55.201Z,16.17
2019-04-01T15:42:26.966Z,16.10
2019-04-01T15:44:58.405Z,15.67
2019-04-01T15:47:29.665Z,20.93
2019-04-01T15:50:02.916Z,15.60
2019-04-01T15:52:33.744Z,15.57
2019-04-01T15:55:03.646Z,19.90
2019-04-01T15:57:38.110Z,17.20
2019-04-01T16:00:13.278Z,17.00
2019-04-01T16:02:41.697Z,19.13
2019-04-01T16:05:12.831Z,17.67
2019-04-01T16:08:09.812Z,18.40
2019-04-01T16:10:20.896Z,17.33
2019-04-01T16:12:49.589Z,18.70
2019-04-01T16:15:21.155Z,17.87
2019-04-01T16:17:53.709Z,17.50
2019-04-01T16:20:20.772Z,18.07
2019-04-01T16:22:57.075Z,16.67
2019-04-01T16:25:27.197Z,19.40
2019-04-01T16:27:55.743Z,17.57
2019-04-01T16:30:27.194Z,18.97
2019-04-01T16:33:03.433Z,18.13
2019-04-01T16:35:38.941Z,16.90
2019-04-01T16:38:07.918Z,16.70
2019-04-01T16:40:42.158Z,19.50
2019-04-01T16:43:10.589Z,18.93
2019-04-01T16:45:39.009Z,20.60
2019-04-01T16:48:08.487Z,20.57
2019-04-01T16:50:40.557Z,21.27
2019-04-01T16:53:11.774Z,18.40
2019-04-01T16:55:43.322Z,16.57
2019-04-01T16:58:17.817Z,19.73
2019-04-01T17:00:50.848Z,16.83
2019-04-01T17:03:20.301Z,15.83
2019-04-01T17:05:52.145Z,18.20
2019-04-01T17:08:35.682Z,20.67
2019-04-01T17:11:04.278Z,16.50
2019-04-01T17:13:34.351Z,17.37
2019-04-01T17:16:02.802Z,17.47
2019-04-01T17:18:35.065Z,16.10
2019-04-01T17:21:06.190Z,17.33
2019-04-01T17:23:36.268Z,20.20
2019-04-01T17:26:13.756Z,20.10
2019-04-01T17:28:42.306Z,19.80
2019-04-01T17:31:12.713Z,19.53
2019-04-01T17:33:47.765Z,16.30
2019-04-01T17:36:21.293Z,17.73
2019-04-01T17:38:55.637Z,19.17
2019-04-01T17:41:32.605Z,18.63
2019-04-01T17:44:06.767Z,19.30
2019-04-01T17:46:35.205Z,18.87
2019-04-01T17:49:08.422Z,19.83
2019-04-01T17:51:36.833Z,16.07
2019-04-01T17:54:08.086Z,14.83
2019-04-01T17:56:36.503Z,17.83
2019-04-01T17:59:05.035Z,19.93
2019-04-01T18:01:36.553Z,19.40
2019-04-01T18:04:05.364Z,19.10
2019-04-01T18:06:35.738Z,22.50
2019-04-01T18:09:08.743Z,25.37
2019-04-01T18:11:39.627Z,22.97
2019-04-01T18:14:11.607Z,24.50
2019-04-01T18:16:40.317Z,20.93
2019-04-01T18:19:10.386Z,20.43
2019-04-01T18:21:38.811Z,22.20
2019-04-01T18:24:16.130Z,15.33
2019-04-01T18:26:45.206Z,18.70
2019-04-01T18:29:17.550Z,18.33
2019-04-01T18:31:49.406Z,16.50
2019-04-01T18:34:17.839Z,14.97
2019-04-01T18:36:52.162Z,17.67
2019-04-01T18:39:24.262Z,14.00
2019-04-01T18:41:52.947Z,18.67
2019-04-01T18:44:25.263Z,17.27
2019-04-01T18:46:52.245Z,17.30
2019-04-01T18:49:21.481Z,17.03
2019-04-01T18:51:52.997Z,16.57
2019-04-01T18:54:22.226Z,18.35
2019-04-01T18:56:50.717Z,19.80
2019-04-01T18:59:26.763Z,26.30
2019-04-01T19:01:57.942Z,31.00
2019-04-01T19:04:29.309Z,18.63
2019-04-01T19:07:04.285Z,16.50
2019-04-01T19:09:34.789Z,18.93
2019-04-01T19:12:04.373Z,16.60
2019-04-01T19:14:34.868Z,22.47
2019-04-01T19:17:03.290Z,21.77
2019-04-01T19:19:31.733Z,18.27
2019-04-01T19:22:00.141Z,20.67
2019-04-01T19:24:37.338Z,20.83
2019-04-01T19:27:05.874Z,21.13
2019-04-01T19:29:36.818Z,16.03
2019-04-01T19:32:14.808Z,19.40
2019-04-01T19:34:44.775Z,17.83
2019-04-01T19:37:13.209Z,18.30
2019-04-01T19:39:44.585Z,16.27
2019-04-01T19:42:23.242Z,15.97
2019-04-01T19:44:54.356Z,13.47
2019-04-01T19:47:22.777Z,15.37
2019-04-01T19:49:53.902Z,15.60
2019-04-01T19:52:26.141Z,14.13
2019-04-01T19:54:56.473Z,15.67
2019-04-01T19:57:30.861Z,14.97
2019-04-01T20:00:00.998Z,17.70
2019-04-01T20:02:36.466Z,21.70
2019-04-01T20:05:13.755Z,20.87
2019-04-01T20:07:45.469Z,13.83
2019-04-01T20:10:17.279Z,15.83
2019-04-01T20:12:46.183Z,15.93
2019-04-01T20:15:19.503Z,12.87
2019-04-01T20:17:48.521Z,16.90
2019-04-01T20:20:19.954Z,15.87
2019-04-01T20:22:51.121Z,15.60
2019-04-01T20:25:47.284Z,11.83
2019-04-01T20:27:53.471Z,13.73
2019-04-01T20:30:25.448Z,14.27
2019-04-01T20:32:56.874Z,18.63
2019-04-01T20:35:30.922Z,15.23
2019-04-01T20:37:59.578Z,14.37
2019-04-01T20:40:28.253Z,13.73
2019-04-01T20:43:00.267Z,13.13
2019-04-01T20:45:31.126Z,15.87
2019-04-01T20:48:03.354Z,13.57
2019-04-01T20:50:32.477Z,12.93
2019-04-01T20:53:06.729Z,14.43
2019-04-01T20:55:47.390Z,12.40
2019-04-01T20:58:05.293Z,13.23
2019-04-01T21:00:38.724Z,14.47
2019-04-01T21:03:16.089Z,11.93
2019-04-01T21:05:53.323Z,12.13
2019-04-01T21:08:29.067Z,13.13
2019-04-01T21:11:04.490Z,12.33
2019-04-01T21:13:35.149Z,12.50
2019-04-01T21:16:05.677Z,14.60
2019-04-01T21:18:40.602Z,10.97
2019-04-01T21:21:17.163Z,12.53
2019-04-01T21:23:47.430Z,15.47
2019-04-01T21:26:18.562Z,13.23
2019-04-01T21:28:47.398Z,14.47
2019-04-01T21:31:18.781Z,13.53
2019-04-01T21:33:50.777Z,11.90
2019-04-01T21:36:19.193Z,13.33
2019-04-01T21:38:50.657Z,11.40
2019-04-01T21:41:20.478Z,10.47
2019-04-01T21:43:55.097Z,11.87
2019-04-01T21:46:29.398Z,17.20
2019-04-01T21:49:00.826Z,10.80
2019-04-01T21:51:34.114Z,11.70
2019-04-01T21:54:04.568Z,11.00
2019-04-01T21:56:34.205Z,11.13
2019-04-01T21:59:08.695Z,12.63
2019-04-01T22:01:46.286Z,10.70
2019-04-01T22:04:18.268Z,9.63
2019-04-01T22:06:56.693Z,10.47
2019-04-01T22:09:25.458Z,13.97
2019-04-01T22:11:58.128Z,12.90
2019-04-01T22:14:26.757Z,10.00
2019-04-01T22:16:55.168Z,9.93
2019-04-01T22:19:27.218Z,11.33
2019-04-01T22:22:05.154Z,10.70
2019-04-01T22:24:36.430Z,9.13
2019-04-01T22:27:17.432Z,9.93
2019-04-01T22:29:57.966Z,9.23
2019-04-01T22:32:26.374Z,8.13
2019-04-01T22:34:59.194Z,11.57
2019-04-01T22:37:27.571Z,9.30
2019-04-01T22:40:00.238Z,9.73
2019-04-01T22:42:32.537Z,7.73
2019-04-01T22:45:02.637Z,10.17
2019-04-01T22:47:31.042Z,10.23
2019-04-01T22:50:03.826Z,10.33
2019-04-01T22:52:35.425Z,11.87
2019-04-01T22:55:08.623Z,10.70
2019-04-01T22:57:40.217Z,12.80
2019-04-01T23:00:09.909Z,14.00
2019-04-01T23:02:42.225Z,15.27
2019-04-01T23:05:14.014Z,18.00
2019-04-01T23:07:48.522Z,13.90
2019-04-01T23:10:20.010Z,18.83
2019-04-01T23:12:51.567Z,17.83
2019-04-01T23:15:26.287Z,13.07
2019-04-01T23:18:07.204Z,12.50
2019-04-01T23:20:35.894Z,14.67
2019-04-01T23:23:05.950Z,10.30
2019-04-01T23:25:36.022Z,14.87
2019-04-01T23:28:10.744Z,9.30
2019-04-01T23:30:45.019Z,8.47
2019-04-01T23:33:13.434Z,11.43
2019-04-01T23:35:44.570Z,10.53
2019-04-01T23:38:15.881Z,10.10
2019-04-01T23:40:47.277Z,9.80
2019-04-01T23:43:22.719Z,11.50
2019-04-01T23:45:53.930Z,10.73
2019-04-01T23:48:33.162Z,10.17
2019-04-01T23:51:04.708Z,8.23
2019-04-01T23:53:44.611Z,7.73
2019-04-01T23:56:13.049Z,9.33
2019-04-01T23:58:41.450Z,11.53
